Lister — ZDHW6 — position and weather

sailwx.info

Track history (hours):
 
Tides and Currents Weather Stations Pressure Air Temp Water Temp Dewpoint Dewpoint Depression Visibility Wind Speed Wind Dir Waves Ship Positions

Lister

Last reported at 2015-Jan-24 22:22 UTC. Time now 2015-Jan-26 22:29 UTC.
Position N 56°19' E 012°00'.

Length 89 m; draft 5.9 m.

Type: Ship. MMSI: 236381000.

Date/timePositionNaut miles runAvg speedWind from/ knotsBaromVisibWave heightAir tempDewpointWater temp
2015-Jan-24 22:22N 56°19' E 012°00'7 8.6
2015-Jan-24 21:33N 56°16' E 012°11'9 8.6
2015-Jan-24 20:33N 56°11' E 012°24'9 8.5
2015-Jan-24 19:33N 56°05' E 012°36'9 8.8
2015-Jan-24 18:33N 55°58' E 012°43'9 9.1
2015-Jan-24 17:33N 55°49' E 012°44'10 9.8
2015-Jan-24 16:33N 55°39' E 012°42'1010.0
2015-Jan-24 15:33N 55°29' E 012°43'10 9.6
2015-Jan-24 14:33N 55°19' E 012°41'9 9.1
2015-Jan-24 13:33N 55°16' E 012°56'9 9.1
2015-Jan-24 12:33N 55°15' E 013°12'9 9.2
2015-Jan-24 11:33N 55°15' E 013°29'11 9.3
2015-Jan-24 10:21N 55°14' E 013°48'8 9.2
2015-Jan-24 09:27N 55°14' E 014°03'9 9.0
2015-Jan-24 08:30N 55°15' E 014°18'8 8.8
2015-Jan-24 07:33N 55°21' E 014°28'9 9.1
2015-Jan-24 06:33N 55°27' E 014°39'10 9.0
2015-Jan-24 05:25N 55°33' E 014°55'8 9.2
2015-Jan-24 04:32N 55°37' E 015°07'9 9.4
2015-Jan-24 03:32N 55°41' E 015°22'344 9.7
2015-Jan-22 16:11N 59°36' E 023°12'610.0
2015-Jan-22 15:33N 59°38' E 023°24'1010.2
2015-Jan-22 14:33N 59°40' E 023°43'1010.1
2015-Jan-22 13:33N 59°43' E 024°03'7410.3
2015-Jan-22 06:20N 60°00' E 026°26'810.7
2015-Jan-22 05:33N 60°01' E 026°43'10410.2
2015-Jan-21 19:18N 59°53' E 030°11'2 2.8
2015-Jan-21 18:33N 59°55' E 030°14'1 0.5
2015-Jan-21 17:33N 59°54' E 030°13'0 0.0
2015-Jan-21 16:33N 59°54' E 030°13'0 0.0
2015-Jan-21 15:33N 59°54' E 030°13'0 0.0
2015-Jan-21 14:33N 59°54' E 030°13'0 0.0
2015-Jan-21 13:33N 59°54' E 030°13'0 0.0
2015-Jan-21 12:33N 59°54' E 030°13'0 0.0
2015-Jan-21 11:33N 59°54' E 030°13'0 0.0
2015-Jan-21 10:33N 59°54' E 030°13'0 0.0
2015-Jan-21 09:33N 59°54' E 030°13'0 0.0
2015-Jan-21 08:33N 59°54' E 030°13'0 0.0
2015-Jan-21 07:33N 59°54' E 030°13'0 0.0
2015-Jan-21 06:30N 59°54' E 030°13'0 0.0
2015-Jan-21 05:30N 59°54' E 030°13'0 0.0
2015-Jan-21 04:24N 59°54' E 030°13'0 0.0
2015-Jan-21 03:33N 59°54' E 030°13'0 0.0
2015-Jan-21 02:30N 59°54' E 030°13'0 0.0
2015-Jan-21 01:30N 59°54' E 030°13'0 0.0
2015-Jan-21 00:30N 59°54' E 030°13'0 0.0
2015-Jan-20 23:30N 59°54' E 030°13'0 0.0
2015-Jan-20 22:30N 59°54' E 030°13'0 0.0
2015-Jan-20 21:30N 59°54' E 030°13'0 0.0
2015-Jan-20 20:24N 59°54' E 030°13'0 0.0
2015-Jan-20 19:30N 59°54' E 030°13'0 0.0
2015-Jan-20 18:33N 59°54' E 030°13'0 0.0
2015-Jan-20 17:33N 59°54' E 030°13'0 0.0
2015-Jan-20 14:30N 59°54' E 030°13'0 0.0
2015-Jan-20 13:18N 59°54' E 030°13'0 0.0
2015-Jan-20 12:18N 59°54' E 030°13'0 0.0
2015-Jan-20 11:24N 59°54' E 030°13'0 0.0
2015-Jan-20 09:12N 59°54' E 030°13'0 0.0
2015-Jan-20 08:12N 59°54' E 030°13'0 0.0
2015-Jan-20 07:30N 59°54' E 030°13'0 0.0
2015-Jan-20 06:30N 59°54' E 030°13'0 0.0
2015-Jan-20 05:30N 59°54' E 030°13'0 0.0
2015-Jan-20 04:18N 59°54' E 030°13'0 0.0
2015-Jan-20 03:27N 59°54' E 030°13'0 0.0
2015-Jan-20 02:18N 59°54' E 030°13'0 0.0
2015-Jan-20 01:31N 59°54' E 030°13'0 0.0
2015-Jan-20 00:27N 59°54' E 030°13'0 0.0
2015-Jan-19 17:24N 59°54' E 030°13'0 0.0
2015-Jan-19 16:24N 59°54' E 030°13'0 0.0
2015-Jan-19 15:18N 59°54' E 030°13'0 0.0
2015-Jan-19 14:18N 59°54' E 030°13'0 0.0
2015-Jan-19 08:12N 59°54' E 030°13'0 0.0
2015-Jan-19 07:30N 59°54' E 030°13'1 1.4
2015-Jan-19 06:33N 59°53' E 030°11'101 4.4
2015-Jan-18 07:29N 59°59' E 026°50'1011.3
2015-Jan-18 06:34N 59°58' E 026°29'4811.6
2015-Jan-18 02:26N 59°47' E 024°57'1011.7
2015-Jan-18 01:33N 59°44' E 024°37'39711.0
2015-Jan-16 13:27N 55°55' E 014°27'4 1.8
2015-Jan-16 11:03N 55°56' E 014°19'0 0.0
2015-Jan-16 06:21N 55°56' E 014°19'0 0.0
2015-Jan-16 00:21N 55°56' E 014°19'0 0.0
2015-Jan-15 00:08N 55°56' E 014°19'0 0.3
2015-Jan-14 23:33N 55°56' E 014°19'  
Track history (hours):
 
Tides and Currents Weather Stations Pressure Air Temp Water Temp Dewpoint Dewpoint Depression Visibility Wind Speed Wind Dir Waves Ship Positions

Lister

Last reported at 2015-Jan-24 22:22 UTC. Time now 2015-Jan-26 22:29 UTC.
Position N 56°19' E 012°00'.

Length 89 m; draft 5.9 m.

Type: Ship. MMSI: 236381000.

Date/timePositionNaut miles runAvg speedWind from/ knotsBaromVisibWave heightAir tempDewpointWater temp
2015-Jan-24 22:22N 56°19' E 012°00'7 8.6
2015-Jan-24 21:33N 56°16' E 012°11'9 8.6
2015-Jan-24 20:33N 56°11' E 012°24'9 8.5
2015-Jan-24 19:33N 56°05' E 012°36'9 8.8
2015-Jan-24 18:33N 55°58' E 012°43'9 9.1
2015-Jan-24 17:33N 55°49' E 012°44'10 9.8
2015-Jan-24 16:33N 55°39' E 012°42'1010.0
2015-Jan-24 15:33N 55°29' E 012°43'10 9.6
2015-Jan-24 14:33N 55°19' E 012°41'9 9.1
2015-Jan-24 13:33N 55°16' E 012°56'9 9.1
2015-Jan-24 12:33N 55°15' E 013°12'9 9.2
2015-Jan-24 11:33N 55°15' E 013°29'11 9.3
2015-Jan-24 10:21N 55°14' E 013°48'8 9.2
2015-Jan-24 09:27N 55°14' E 014°03'9 9.0
2015-Jan-24 08:30N 55°15' E 014°18'8 8.8
2015-Jan-24 07:33N 55°21' E 014°28'9 9.1
2015-Jan-24 06:33N 55°27' E 014°39'10 9.0
2015-Jan-24 05:25N 55°33' E 014°55'8 9.2
2015-Jan-24 04:32N 55°37' E 015°07'9 9.4
2015-Jan-24 03:32N 55°41' E 015°22'344 9.7
2015-Jan-22 16:11N 59°36' E 023°12'610.0
2015-Jan-22 15:33N 59°38' E 023°24'1010.2
2015-Jan-22 14:33N 59°40' E 023°43'1010.1
2015-Jan-22 13:33N 59°43' E 024°03'7410.3
2015-Jan-22 06:20N 60°00' E 026°26'810.7
2015-Jan-22 05:33N 60°01' E 026°43'10410.2
2015-Jan-21 19:18N 59°53' E 030°11'2 2.8
2015-Jan-21 18:33N 59°55' E 030°14'1 0.5
2015-Jan-21 17:33N 59°54' E 030°13'0 0.0
2015-Jan-21 16:33N 59°54' E 030°13'0 0.0
2015-Jan-21 15:33N 59°54' E 030°13'0 0.0
2015-Jan-21 14:33N 59°54' E 030°13'0 0.0
2015-Jan-21 13:33N 59°54' E 030°13'0 0.0
2015-Jan-21 12:33N 59°54' E 030°13'0 0.0
2015-Jan-21 11:33N 59°54' E 030°13'0 0.0
2015-Jan-21 10:33N 59°54' E 030°13'0 0.0
2015-Jan-21 09:33N 59°54' E 030°13'0 0.0
2015-Jan-21 08:33N 59°54' E 030°13'0 0.0
2015-Jan-21 07:33N 59°54' E 030°13'0 0.0
2015-Jan-21 06:30N 59°54' E 030°13'0 0.0
2015-Jan-21 05:30N 59°54' E 030°13'0 0.0
2015-Jan-21 04:24N 59°54' E 030°13'0 0.0
2015-Jan-21 03:33N 59°54' E 030°13'0 0.0
2015-Jan-21 02:30N 59°54' E 030°13'0 0.0
2015-Jan-21 01:30N 59°54' E 030°13'0 0.0
2015-Jan-21 00:30N 59°54' E 030°13'0 0.0
2015-Jan-20 23:30N 59°54' E 030°13'0 0.0
2015-Jan-20 22:30N 59°54' E 030°13'0 0.0
2015-Jan-20 21:30N 59°54' E 030°13'0 0.0
2015-Jan-20 20:24N 59°54' E 030°13'0 0.0
2015-Jan-20 19:30N 59°54' E 030°13'0 0.0
2015-Jan-20 18:33N 59°54' E 030°13'0 0.0
2015-Jan-20 17:33N 59°54' E 030°13'0 0.0
2015-Jan-20 14:30N 59°54' E 030°13'0 0.0
2015-Jan-20 13:18N 59°54' E 030°13'0 0.0
2015-Jan-20 12:18N 59°54' E 030°13'0 0.0
2015-Jan-20 11:24N 59°54' E 030°13'0 0.0
2015-Jan-20 09:12N 59°54' E 030°13'0 0.0
2015-Jan-20 08:12N 59°54' E 030°13'0 0.0
2015-Jan-20 07:30N 59°54' E 030°13'0 0.0
2015-Jan-20 06:30N 59°54' E 030°13'0 0.0
2015-Jan-20 05:30N 59°54' E 030°13'0 0.0
2015-Jan-20 04:18N 59°54' E 030°13'0 0.0
2015-Jan-20 03:27N 59°54' E 030°13'0 0.0
2015-Jan-20 02:18N 59°54' E 030°13'0 0.0
2015-Jan-20 01:31N 59°54' E 030°13'0 0.0
2015-Jan-20 00:27N 59°54' E 030°13'0 0.0
2015-Jan-19 17:24N 59°54' E 030°13'0 0.0
2015-Jan-19 16:24N 59°54' E 030°13'0 0.0
2015-Jan-19 15:18N 59°54' E 030°13'0 0.0
2015-Jan-19 14:18N 59°54' E 030°13'0 0.0
2015-Jan-19 08:12N 59°54' E 030°13'0 0.0
2015-Jan-19 07:30N 59°54' E 030°13'1 1.4
2015-Jan-19 06:33N 59°53' E 030°11'101 4.4
2015-Jan-18 07:29N 59°59' E 026°50'1011.3
2015-Jan-18 06:34N 59°58' E 026°29'4811.6
2015-Jan-18 02:26N 59°47' E 024°57'1011.7
2015-Jan-18 01:33N 59°44' E 024°37'39711.0
2015-Jan-16 13:27N 55°55' E 014°27'4 1.8
2015-Jan-16 11:03N 55°56' E 014°19'0 0.0
2015-Jan-16 06:21N 55°56' E 014°19'0 0.0
2015-Jan-16 00:21N 55°56' E 014°19'0 0.0
2015-Jan-15 00:08N 55°56' E 014°19'0 0.3
2015-Jan-14 23:33N 55°56' E 014°19'  

Dump ship's entire track history